sensor_id;sensor_type;location;lat;lon;timestamp;temperature;humidity
2024;DHT22;1016;48.770;9.154;2023-08-24T00:01:17;23.70;99.90
2024;DHT22;1016;48.770;9.154;2023-08-24T00:03:46;23.70;99.90
2024;DHT22;1016;48.770;9.154;2023-08-24T00:06:13;23.80;99.90
2024;DHT22;1016;48.770;9.154;2023-08-24T00:08:38;23.80;99.90
2024;DHT22;1016;48.770;9.154;2023-08-24T00:11:04;23.70;99.90
2024;DHT22;1016;48.770;9.154;2023-08-24T00:13:31;23.60;99.90
2024;DHT22;1016;48.770;9.154;2023-08-24T00:15:57;23.80;99.90
2024;DHT22;1016;48.770;9.154;2023-08-24T00:18:22;23.70;99.90
2024;DHT22;1016;48.770;9.154;2023-08-24T00:20:48;23.60;99.90
2024;DHT22;1016;48.770;9.154;2023-08-24T00:23:14;23.70;99.90
2024;DHT22;1016;48.770;9.154;2023-08-24T00:25:41;23.80;99.90
2024;DHT22;1016;48.770;9.154;2023-08-24T00:28:07;23.80;99.90
2024;DHT22;1016;48.770;9.154;2023-08-24T00:30:32;23.70;99.90
2024;DHT22;1016;48.770;9.154;2023-08-24T00:32:58;23.70;99.90
2024;DHT22;1016;48.770;9.154;2023-08-24T00:35:24;23.60;99.90
2024;DHT22;1016;48.770;9.154;2023-08-24T00:37:50;23.70;99.90
2024;DHT22;1016;48.770;9.154;2023-08-24T00:40:16;23.70;99.90
2024;DHT22;1016;48.770;9.154;2023-08-24T00:42:45;23.60;99.90
2024;DHT22;1016;48.770;9.154;2023-08-24T00:45:14;23.70;99.90
2024;DHT22;1016;48.770;9.154;2023-08-24T00:47:42;23.60;99.90
2024;DHT22;1016;48.770;9.154;2023-08-24T00:50:09;23.70;99.90
2024;DHT22;1016;48.770;9.154;2023-08-24T00:52:37;23.60;99.90
2024;DHT22;1016;48.770;9.154;2023-08-24T00:55:05;23.70;99.90
2024;DHT22;1016;48.770;9.154;2023-08-24T00:57:35;23.60;99.90
2024;DHT22;1016;48.770;9.154;2023-08-24T01:00:05;23.50;99.90
2024;DHT22;1016;48.770;9.154;2023-08-24T01:02:31;23.30;99.90
2024;DHT22;1016;48.770;9.154;2023-08-24T01:04:58;23.70;99.90
2024;DHT22;1016;48.770;9.154;2023-08-24T01:07:24;23.70;99.90
2024;DHT22;1016;48.770;9.154;2023-08-24T01:09:50;23.50;99.90
2024;DHT22;1016;48.770;9.154;2023-08-24T01:15:43;23.50;99.90
2024;DHT22;1016;48.770;9.154;2023-08-24T01:18:14;23.30;99.90
2024;DHT22;1016;48.770;9.154;2023-08-24T01:20:45;23.50;99.90
2024;DHT22;1016;48.770;9.154;2023-08-24T01:26:14;23.50;99.90
2024;DHT22;1016;48.770;9.154;2023-08-24T01:28:41;23.50;99.90
2024;DHT22;1016;48.770;9.154;2023-08-24T01:31:08;23.60;99.90
2024;DHT22;1016;48.770;9.154;2023-08-24T01:33:34;23.60;99.90
2024;DHT22;1016;48.770;9.154;2023-08-24T01:36:00;23.50;99.90
2024;DHT22;1016;48.770;9.154;2023-08-24T01:38:26;23.50;99.90
2024;DHT22;1016;48.770;9.154;2023-08-24T01:41:01;23.50;99.90
2024;DHT22;1016;48.770;9.154;2023-08-24T01:43:31;23.50;99.90
2024;DHT22;1016;48.770;9.154;2023-08-24T01:46:04;23.50;99.90
2024;DHT22;1016;48.770;9.154;2023-08-24T01:48:30;23.60;99.90
2024;DHT22;1016;48.770;9.154;2023-08-24T01:51:00;23.50;99.90
2024;DHT22;1016;48.770;9.154;2023-08-24T01:53:27;23.60;99.90
2024;DHT22;1016;48.770;9.154;2023-08-24T01:55:53;23.50;99.90
2024;DHT22;1016;48.770;9.154;2023-08-24T01:58:20;23.50;99.90
2024;DHT22;1016;48.770;9.154;2023-08-24T02:00:47;23.60;99.90
2024;DHT22;1016;48.770;9.154;2023-08-24T02:03:15;23.60;99.90
2024;DHT22;1016;48.770;9.154;2023-08-24T02:05:40;23.60;99.90
2024;DHT22;1016;48.770;9.154;2023-08-24T02:08:08;23.60;99.90
2024;DHT22;1016;48.770;9.154;2023-08-24T02:10:34;23.70;99.90
2024;DHT22;1016;48.770;9.154;2023-08-24T02:12:59;23.60;99.90
2024;DHT22;1016;48.770;9.154;2023-08-24T02:15:27;23.40;99.90
2024;DHT22;1016;48.770;9.154;2023-08-24T02:17:53;23.50;99.90
2024;DHT22;1016;48.770;9.154;2023-08-24T02:20:21;23.50;99.90
2024;DHT22;1016;48.770;9.154;2023-08-24T02:22:47;23.50;99.90
2024;DHT22;1016;48.770;9.154;2023-08-24T02:25:13;23.60;99.90
2024;DHT22;1016;48.770;9.154;2023-08-24T02:27:39;23.50;99.90
2024;DHT22;1016;48.770;9.154;2023-08-24T02:30:08;23.60;99.90
2024;DHT22;1016;48.770;9.154;2023-08-24T02:32:34;23.40;99.90
2024;DHT22;1016;48.770;9.154;2023-08-24T02:35:00;23.60;99.90
2024;DHT22;1016;48.770;9.154;2023-08-24T02:37:26;23.40;99.90
2024;DHT22;1016;48.770;9.154;2023-08-24T02:39:51;23.50;99.90
2024;DHT22;1016;48.770;9.154;2023-08-24T02:42:17;23.40;99.90
2024;DHT22;1016;48.770;9.154;2023-08-24T02:44:43;23.40;99.90
2024;DHT22;1016;48.770;9.154;2023-08-24T02:47:09;23.40;99.90
2024;DHT22;1016;48.770;9.154;2023-08-24T02:49:34;23.60;99.90
2024;DHT22;1016;48.770;9.154;2023-08-24T02:52:00;23.50;99.90
2024;DHT22;1016;48.770;9.154;2023-08-24T02:54:26;23.60;99.90
2024;DHT22;1016;48.770;9.154;2023-08-24T02:56:55;23.40;99.90
2024;DHT22;1016;48.770;9.154;2023-08-24T02:59:21;23.50;99.90
2024;DHT22;1016;48.770;9.154;2023-08-24T03:01:49;23.50;99.90
2024;DHT22;1016;48.770;9.154;2023-08-24T03:04:14;23.20;99.90
2024;DHT22;1016;48.770;9.154;2023-08-24T03:06:40;23.50;99.90
2024;DHT22;1016;48.770;9.154;2023-08-24T03:09:06;23.50;99.90
2024;DHT22;1016;48.770;9.154;2023-08-24T03:11:32;23.40;99.90
2024;DHT22;1016;48.770;9.154;2023-08-24T03:13:58;23.40;99.90
2024;DHT22;1016;48.770;9.154;2023-08-24T03:16:23;23.50;99.90
2024;DHT22;1016;48.770;9.154;2023-08-24T03:18:52;23.50;99.90
2024;DHT22;1016;48.770;9.154;2023-08-24T03:21:17;23.50;99.90
2024;DHT22;1016;48.770;9.154;2023-08-24T03:23:43;23.50;99.90
2024;DHT22;1016;48.770;9.154;2023-08-24T03:26:09;23.50;99.90
2024;DHT22;1016;48.770;9.154;2023-08-24T03:28:34;23.30;99.90
2024;DHT22;1016;48.770;9.154;2023-08-24T03:31:00;23.30;99.90
2024;DHT22;1016;48.770;9.154;2023-08-24T03:33:27;23.30;99.90
2024;DHT22;1016;48.770;9.154;2023-08-24T03:35:54;23.50;99.90
2024;DHT22;1016;48.770;9.154;2023-08-24T03:38:25;23.30;99.90
2024;DHT22;1016;48.770;9.154;2023-08-24T03:40:52;23.50;99.90
2024;DHT22;1016;48.770;9.154;2023-08-24T03:43:17;23.30;99.90
2024;DHT22;1016;48.770;9.154;2023-08-24T03:45:49;23.30;99.90
2024;DHT22;1016;48.770;9.154;2023-08-24T03:48:15;23.30;99.90
2024;DHT22;1016;48.770;9.154;2023-08-24T03:50:41;23.30;99.90
2024;DHT22;1016;48.770;9.154;2023-08-24T03:53:07;23.50;99.90
2024;DHT22;1016;48.770;9.154;2023-08-24T03:55:32;23.30;99.90
2024;DHT22;1016;48.770;9.154;2023-08-24T03:57:58;23.40;99.90
2024;DHT22;1016;48.770;9.154;2023-08-24T04:00:24;23.30;99.90
2024;DHT22;1016;48.770;9.154;2023-08-24T04:02:53;23.30;99.90
2024;DHT22;1016;48.770;9.154;2023-08-24T04:05:19;23.50;99.90
2024;DHT22;1016;48.770;9.154;2023-08-24T04:07:44;23.30;99.90
2024;DHT22;1016;48.770;9.154;2023-08-24T04:10:11;23.50;99.90
2024;DHT22;1016;48.770;9.154;2023-08-24T04:12:37;23.40;99.90
2024;DHT22;1016;48.770;9.154;2023-08-24T04:15:02;23.30;99.90
2024;DHT22;1016;48.770;9.154;2023-08-24T04:17:28;23.40;99.90
2024;DHT22;1016;48.770;9.154;2023-08-24T04:19:54;23.20;99.90
2024;DHT22;1016;48.770;9.154;2023-08-24T04:22:20;23.30;99.90
2024;DHT22;1016;48.770;9.154;2023-08-24T04:24:46;23.40;99.90
2024;DHT22;1016;48.770;9.154;2023-08-24T04:27:11;23.30;99.90
2024;DHT22;1016;48.770;9.154;2023-08-24T04:29:37;23.50;99.90
2024;DHT22;1016;48.770;9.154;2023-08-24T04:32:03;23.30;99.90
2024;DHT22;1016;48.770;9.154;2023-08-24T04:34:28;23.30;99.90
2024;DHT22;1016;48.770;9.154;2023-08-24T04:36:54;23.40;99.90
2024;DHT22;1016;48.770;9.154;2023-08-24T04:39:20;23.20;99.90
2024;DHT22;1016;48.770;9.154;2023-08-24T04:41:46;23.30;99.90
2024;DHT22;1016;48.770;9.154;2023-08-24T04:44:12;23.30;99.90
2024;DHT22;1016;48.770;9.154;2023-08-24T04:46:37;23.40;99.90
2024;DHT22;1016;48.770;9.154;2023-08-24T04:49:03;23.20;99.90
2024;DHT22;1016;48.770;9.154;2023-08-24T04:51:29;23.30;99.90
2024;DHT22;1016;48.770;9.154;2023-08-24T04:53:55;23.40;99.90
2024;DHT22;1016;48.770;9.154;2023-08-24T04:56:20;23.20;99.90
2024;DHT22;1016;48.770;9.154;2023-08-24T04:58:55;23.40;99.90
2024;DHT22;1016;48.770;9.154;2023-08-24T05:01:26;23.40;99.90
2024;DHT22;1016;48.770;9.154;2023-08-24T05:03:55;23.40;99.90
2024;DHT22;1016;48.770;9.154;2023-08-24T05:06:21;23.40;99.90
2024;DHT22;1016;48.770;9.154;2023-08-24T05:08:47;23.30;99.90
2024;DHT22;1016;48.770;9.154;2023-08-24T05:11:31;23.30;99.90
2024;DHT22;1016;48.770;9.154;2023-08-24T05:13:57;23.30;99.90
2024;DHT22;1016;48.770;9.154;2023-08-24T05:16:23;23.40;99.90
2024;DHT22;1016;48.770;9.154;2023-08-24T05:18:48;23.30;99.90
2024;DHT22;1016;48.770;9.154;2023-08-24T05:21:14;23.20;99.90
2024;DHT22;1016;48.770;9.154;2023-08-24T05:23:40;23.30;99.90
2024;DHT22;1016;48.770;9.154;2023-08-24T05:26:06;23.30;99.90
2024;DHT22;1016;48.770;9.154;2023-08-24T05:28:32;23.10;99.90
2024;DHT22;1016;48.770;9.154;2023-08-24T05:30:58;23.40;99.90
2024;DHT22;1016;48.770;9.154;2023-08-24T05:33:24;23.40;99.90
2024;DHT22;1016;48.770;9.154;2023-08-24T05:35:51;23.20;99.90
2024;DHT22;1016;48.770;9.154;2023-08-24T05:38:17;23.50;99.90
2024;DHT22;1016;48.770;9.154;2023-08-24T05:40:46;23.30;99.90
2024;DHT22;1016;48.770;9.154;2023-08-24T05:43:11;23.30;99.90
2024;DHT22;1016;48.770;9.154;2023-08-24T05:45:37;23.40;99.90
2024;DHT22;1016;48.770;9.154;2023-08-24T05:48:05;23.40;99.90
2024;DHT22;1016;48.770;9.154;2023-08-24T05:50:31;23.30;99.90
2024;DHT22;1016;48.770;9.154;2023-08-24T05:52:57;23.30;99.90
2024;DHT22;1016;48.770;9.154;2023-08-24T05:55:22;23.30;99.90
2024;DHT22;1016;48.770;9.154;2023-08-24T05:57:49;23.30;99.90
2024;DHT22;1016;48.770;9.154;2023-08-24T06:00:15;23.40;99.90
2024;DHT22;1016;48.770;9.154;2023-08-24T06:02:44;23.30;99.90
2024;DHT22;1016;48.770;9.154;2023-08-24T06:05:09;23.40;99.90
2024;DHT22;1016;48.770;9.154;2023-08-24T06:07:36;23.40;99.90
2024;DHT22;1016;48.770;9.154;2023-08-24T06:10:02;23.50;99.90
2024;DHT22;1016;48.770;9.154;2023-08-24T06:12:28;23.40;99.90
2024;DHT22;1016;48.770;9.154;2023-08-24T06:14:54;23.30;99.90
2024;DHT22;1016;48.770;9.154;2023-08-24T06:17:20;23.40;99.90
2024;DHT22;1016;48.770;9.154;2023-08-24T06:19:46;23.40;99.90
2024;DHT22;1016;48.770;9.154;2023-08-24T06:22:12;23.40;99.90
2024;DHT22;1016;48.770;9.154;2023-08-24T06:24:38;23.40;99.90
2024;DHT22;1016;48.770;9.154;2023-08-24T06:27:04;23.50;99.90
2024;DHT22;1016;48.770;9.154;2023-08-24T06:29:30;23.40;99.90
2024;DHT22;1016;48.770;9.154;2023-08-24T06:31:56;23.40;99.90
2024;DHT22;1016;48.770;9.154;2023-08-24T06:34:22;23.50;99.90
2024;DHT22;1016;48.770;9.154;2023-08-24T06:36:50;23.40;99.90
2024;DHT22;1016;48.770;9.154;2023-08-24T06:39:16;23.40;99.90
2024;DHT22;1016;48.770;9.154;2023-08-24T06:41:42;23.40;99.90
2024;DHT22;1016;48.770;9.154;2023-08-24T06:44:07;23.40;99.90
2024;DHT22;1016;48.770;9.154;2023-08-24T06:46:33;23.40;99.90
2024;DHT22;1016;48.770;9.154;2023-08-24T06:48:58;23.40;99.90
2024;DHT22;1016;48.770;9.154;2023-08-24T06:51:25;23.60;99.90
2024;DHT22;1016;48.770;9.154;2023-08-24T06:53:51;23.40;99.90
2024;DHT22;1016;48.770;9.154;2023-08-24T06:56:16;23.30;99.90
2024;DHT22;1016;48.770;9.154;2023-08-24T06:58:47;23.40;99.90
2024;DHT22;1016;48.770;9.154;2023-08-24T07:01:14;23.40;99.90
2024;DHT22;1016;48.770;9.154;2023-08-24T07:03:48;23.40;99.90
2024;DHT22;1016;48.770;9.154;2023-08-24T07:06:39;23.50;99.90
2024;DHT22;1016;48.770;9.154;2023-08-24T07:09:05;23.40;99.90
2024;DHT22;1016;48.770;9.154;2023-08-24T07:11:33;23.50;99.90
2024;DHT22;1016;48.770;9.154;2023-08-24T07:14:01;23.40;99.90
2024;DHT22;1016;48.770;9.154;2023-08-24T07:16:32;23.30;99.90
2024;DHT22;1016;48.770;9.154;2023-08-24T07:19:01;23.50;99.90
2024;DHT22;1016;48.770;9.154;2023-08-24T07:21:30;23.50;99.90
2024;DHT22;1016;48.770;9.154;2023-08-24T07:23:57;23.50;99.90
2024;DHT22;1016;48.770;9.154;2023-08-24T07:26:23;23.50;99.90
2024;DHT22;1016;48.770;9.154;2023-08-24T07:28:57;23.50;99.90
2024;DHT22;1016;48.770;9.154;2023-08-24T07:31:41;23.50;99.90
2024;DHT22;1016;48.770;9.154;2023-08-24T07:34:08;23.40;99.90
2024;DHT22;1016;48.770;9.154;2023-08-24T07:36:36;23.40;99.90
2024;DHT22;1016;48.770;9.154;2023-08-24T07:39:17;23.50;99.90
2024;DHT22;1016;48.770;9.154;2023-08-24T07:41:45;23.50;99.90
2024;DHT22;1016;48.770;9.154;2023-08-24T07:44:13;23.50;99.90
2024;DHT22;1016;48.770;9.154;2023-08-24T07:46:39;23.50;99.90
2024;DHT22;1016;48.770;9.154;2023-08-24T07:52:23;23.60;99.90
2024;DHT22;1016;48.770;9.154;2023-08-24T07:55:32;23.60;99.90
2024;DHT22;1016;48.770;9.154;2023-08-24T07:58:03;23.60;99.90
2024;DHT22;1016;48.770;9.154;2023-08-24T08:00:29;23.70;99.90
2024;DHT22;1016;48.770;9.154;2023-08-24T08:02:58;23.60;99.90
2024;DHT22;1016;48.770;9.154;2023-08-24T08:05:24;23.80;99.90
2024;DHT22;1016;48.770;9.154;2023-08-24T08:07:52;23.40;99.90
2024;DHT22;1016;48.770;9.154;2023-08-24T08:10:20;23.60;99.90
2024;DHT22;1016;48.770;9.154;2023-08-24T08:12:49;23.80;99.90
2024;DHT22;1016;48.770;9.154;2023-08-24T08:15:20;23.60;99.90
2024;DHT22;1016;48.770;9.154;2023-08-24T08:18:02;23.70;99.90
2024;DHT22;1016;48.770;9.154;2023-08-24T08:20:31;23.70;99.90
2024;DHT22;1016;48.770;9.154;2023-08-24T08:22:57;23.70;99.90
2024;DHT22;1016;48.770;9.154;2023-08-24T08:25:30;23.80;99.90
2024;DHT22;1016;48.770;9.154;2023-08-24T08:30:48;23.80;99.90
2024;DHT22;1016;48.770;9.154;2023-08-24T08:33:20;23.70;99.90
2024;DHT22;1016;48.770;9.154;2023-08-24T08:35:53;23.70;99.90
2024;DHT22;1016;48.770;9.154;2023-08-24T08:38:21;23.70;99.90
2024;DHT22;1016;48.770;9.154;2023-08-24T08:41:09;23.70;99.90
2024;DHT22;1016;48.770;9.154;2023-08-24T08:43:47;23.70;99.90
2024;DHT22;1016;48.770;9.154;2023-08-24T08:46:15;23.80;99.90
2024;DHT22;1016;48.770;9.154;2023-08-24T08:48:44;23.80;99.90
2024;DHT22;1016;48.770;9.154;2023-08-24T08:51:18;23.90;99.90
2024;DHT22;1016;48.770;9.154;2023-08-24T08:53:47;23.80;99.90
2024;DHT22;1016;48.770;9.154;2023-08-24T08:56:16;23.80;99.90
2024;DHT22;1016;48.770;9.154;2023-08-24T08:58:50;23.80;99.90
2024;DHT22;1016;48.770;9.154;2023-08-24T09:01:22;23.80;99.90
2024;DHT22;1016;48.770;9.154;2023-08-24T09:03:57;23.80;99.90
2024;DHT22;1016;48.770;9.154;2023-08-24T09:06:25;23.80;99.90
2024;DHT22;1016;48.770;9.154;2023-08-24T09:11:36;23.80;99.90
2024;DHT22;1016;48.770;9.154;2023-08-24T09:14:04;23.70;99.90
2024;DHT22;1016;48.770;9.154;2023-08-24T09:16:29;24.00;99.90
2024;DHT22;1016;48.770;9.154;2023-08-24T09:19:14;23.90;99.90
2024;DHT22;1016;48.770;9.154;2023-08-24T09:21:42;23.90;99.90
2024;DHT22;1016;48.770;9.154;2023-08-24T09:24:08;23.80;99.90
2024;DHT22;1016;48.770;9.154;2023-08-24T09:26:48;23.90;99.90
2024;DHT22;1016;48.770;9.154;2023-08-24T09:29:21;23.90;99.90
2024;DHT22;1016;48.770;9.154;2023-08-24T09:31:50;23.90;99.90
2024;DHT22;1016;48.770;9.154;2023-08-24T09:34:24;23.90;99.90
2024;DHT22;1016;48.770;9.154;2023-08-24T09:36:53;23.70;99.90
2024;DHT22;1016;48.770;9.154;2023-08-24T09:39:24;23.90;99.90
2024;DHT22;1016;48.770;9.154;2023-08-24T09:41:50;24.00;99.90
2024;DHT22;1016;48.770;9.154;2023-08-24T09:44:19;24.10;99.90
2024;DHT22;1016;48.770;9.154;2023-08-24T09:46:45;24.20;99.90
2024;DHT22;1016;48.770;9.154;2023-08-24T09:52:33;23.90;99.90
2024;DHT22;1016;48.770;9.154;2023-08-24T09:55:05;23.90;99.90
2024;DHT22;1016;48.770;9.154;2023-08-24T09:57:44;24.10;99.90
2024;DHT22;1016;48.770;9.154;2023-08-24T10:00:16;24.10;99.90
2024;DHT22;1016;48.770;9.154;2023-08-24T10:03:09;24.10;99.90
2024;DHT22;1016;48.770;9.154;2023-08-24T10:05:54;24.10;99.90
2024;DHT22;1016;48.770;9.154;2023-08-24T10:08:35;24.00;99.90
2024;DHT22;1016;48.770;9.154;2023-08-24T10:11:02;24.10;99.90
2024;DHT22;1016;48.770;9.154;2023-08-24T10:16:08;24.30;99.90
2024;DHT22;1016;48.770;9.154;2023-08-24T10:18:39;24.20;99.90
2024;DHT22;1016;48.770;9.154;2023-08-24T10:21:34;24.20;99.90
2024;DHT22;1016;48.770;9.154;2023-08-24T10:24:12;24.20;99.90
2024;DHT22;1016;48.770;9.154;2023-08-24T10:26:42;24.10;99.90
2024;DHT22;1016;48.770;9.154;2023-08-24T10:29:09;24.30;99.90
2024;DHT22;1016;48.770;9.154;2023-08-24T10:31:43;24.40;99.90
2024;DHT22;1016;48.770;9.154;2023-08-24T10:34:12;24.20;99.90
2024;DHT22;1016;48.770;9.154;2023-08-24T10:36:39;24.40;99.90
2024;DHT22;1016;48.770;9.154;2023-08-24T10:39:12;24.30;99.90
2024;DHT22;1016;48.770;9.154;2023-08-24T10:42:06;24.30;99.90
2024;DHT22;1016;48.770;9.154;2023-08-24T10:44:40;24.40;99.90
2024;DHT22;1016;48.770;9.154;2023-08-24T10:47:14;24.30;99.90
2024;DHT22;1016;48.770;9.154;2023-08-24T10:54:54;24.50;99.90
2024;DHT22;1016;48.770;9.154;2023-08-24T10:57:24;24.40;99.90
2024;DHT22;1016;48.770;9.154;2023-08-24T11:00:00;24.40;99.90
2024;DHT22;1016;48.770;9.154;2023-08-24T11:02:47;24.40;99.90
2024;DHT22;1016;48.770;9.154;2023-08-24T11:05:24;24.40;99.90
2024;DHT22;1016;48.770;9.154;2023-08-24T11:08:06;24.50;99.90
2024;DHT22;1016;48.770;9.154;2023-08-24T11:10:45;24.50;99.90
2024;DHT22;1016;48.770;9.154;2023-08-24T11:13:17;24.50;99.90
2024;DHT22;1016;48.770;9.154;2023-08-24T11:15:46;24.50;99.90
2024;DHT22;1016;48.770;9.154;2023-08-24T11:23:27;24.60;99.90
2024;DHT22;1016;48.770;9.154;2023-08-24T11:25:54;24.40;99.90
2024;DHT22;1016;48.770;9.154;2023-08-24T11:28:23;24.70;99.90
2024;DHT22;1016;48.770;9.154;2023-08-24T11:30:49;24.80;99.90
2024;DHT22;1016;48.770;9.154;2023-08-24T11:33:36;24.70;99.90
2024;DHT22;1016;48.770;9.154;2023-08-24T11:36:08;24.70;99.90
2024;DHT22;1016;48.770;9.154;2023-08-24T11:38:38;24.80;99.90
2024;DHT22;1016;48.770;9.154;2023-08-24T11:44:27;24.90;99.90
2024;DHT22;1016;48.770;9.154;2023-08-24T11:46:53;24.90;99.90
2024;DHT22;1016;48.770;9.154;2023-08-24T11:49:27;24.90;99.90
2024;DHT22;1016;48.770;9.154;2023-08-24T11:52:13;25.00;99.90
2024;DHT22;1016;48.770;9.154;2023-08-24T11:54:44;25.00;99.90
2024;DHT22;1016;48.770;9.154;2023-08-24T11:57:11;25.00;99.90
2024;DHT22;1016;48.770;9.154;2023-08-24T11:59:37;25.00;99.90
2024;DHT22;1016;48.770;9.154;2023-08-24T12:02:08;25.10;99.90
2024;DHT22;1016;48.770;9.154;2023-08-24T12:04:38;25.10;99.90
2024;DHT22;1016;48.770;9.154;2023-08-24T12:07:12;25.30;99.90
2024;DHT22;1016;48.770;9.154;2023-08-24T12:09:39;25.30;99.90
2024;DHT22;1016;48.770;9.154;2023-08-24T12:12:16;25.30;99.90
2024;DHT22;1016;48.770;9.154;2023-08-24T12:14:45;25.30;99.90
2024;DHT22;1016;48.770;9.154;2023-08-24T12:17:14;25.10;99.90
2024;DHT22;1016;48.770;9.154;2023-08-24T12:20:00;25.50;99.90
2024;DHT22;1016;48.770;9.154;2023-08-24T12:22:53;25.40;99.90
2024;DHT22;1016;48.770;9.154;2023-08-24T12:25:22;25.40;99.90
2024;DHT22;1016;48.770;9.154;2023-08-24T12:27:51;25.50;99.90
2024;DHT22;1016;48.770;9.154;2023-08-24T12:30:26;25.60;99.90
2024;DHT22;1016;48.770;9.154;2023-08-24T12:32:51;25.50;99.90
2024;DHT22;1016;48.770;9.154;2023-08-24T12:35:20;25.60;99.90
2024;DHT22;1016;48.770;9.154;2023-08-24T12:37:46;25.70;99.90
2024;DHT22;1016;48.770;9.154;2023-08-24T12:40:17;25.70;99.90
2024;DHT22;1016;48.770;9.154;2023-08-24T12:42:49;25.50;99.90
2024;DHT22;1016;48.770;9.154;2023-08-24T12:45:14;25.60;99.90
2024;DHT22;1016;48.770;9.154;2023-08-24T12:47:53;25.70;99.90
2024;DHT22;1016;48.770;9.154;2023-08-24T12:50:19;25.70;99.90
2024;DHT22;1016;48.770;9.154;2023-08-24T12:52:54;25.70;99.90
2024;DHT22;1016;48.770;9.154;2023-08-24T12:55:32;25.70;99.90
2024;DHT22;1016;48.770;9.154;2023-08-24T12:58:04;25.70;99.90
2024;DHT22;1016;48.770;9.154;2023-08-24T13:00:40;25.70;99.90
2024;DHT22;1016;48.770;9.154;2023-08-24T13:03:16;25.80;99.90
2024;DHT22;1016;48.770;9.154;2023-08-24T13:06:05;25.60;99.90
2024;DHT22;1016;48.770;9.154;2023-08-24T13:08:33;25.60;99.90
2024;DHT22;1016;48.770;9.154;2023-08-24T13:14:02;25.80;99.90
2024;DHT22;1016;48.770;9.154;2023-08-24T13:16:30;25.90;99.90
2024;DHT22;1016;48.770;9.154;2023-08-24T13:18:58;25.80;99.90
2024;DHT22;1016;48.770;9.154;2023-08-24T13:21:35;25.80;99.90
2024;DHT22;1016;48.770;9.154;2023-08-24T13:24:21;25.80;99.90
2024;DHT22;1016;48.770;9.154;2023-08-24T13:26:48;25.90;99.90
2024;DHT22;1016;48.770;9.154;2023-08-24T13:29:14;26.00;99.90
2024;DHT22;1016;48.770;9.154;2023-08-24T13:31:40;26.00;99.90
2024;DHT22;1016;48.770;9.154;2023-08-24T13:34:05;26.00;99.90
2024;DHT22;1016;48.770;9.154;2023-08-24T13:36:33;25.90;99.90
2024;DHT22;1016;48.770;9.154;2023-08-24T13:39:01;26.00;99.90
2024;DHT22;1016;48.770;9.154;2023-08-24T13:41:28;26.00;99.90
2024;DHT22;1016;48.770;9.154;2023-08-24T13:43:53;26.20;99.90
2024;DHT22;1016;48.770;9.154;2023-08-24T13:46:19;26.00;99.90
2024;DHT22;1016;48.770;9.154;2023-08-24T13:48:45;25.90;99.90
2024;DHT22;1016;48.770;9.154;2023-08-24T13:51:10;26.10;99.90
2024;DHT22;1016;48.770;9.154;2023-08-24T13:53:45;26.20;99.90
2024;DHT22;1016;48.770;9.154;2023-08-24T13:56:12;26.20;99.90
2024;DHT22;1016;48.770;9.154;2023-08-24T13:58:38;26.30;99.90
2024;DHT22;1016;48.770;9.154;2023-08-24T14:01:05;26.20;99.90
2024;DHT22;1016;48.770;9.154;2023-08-24T14:03:33;26.30;99.90
2024;DHT22;1016;48.770;9.154;2023-08-24T14:06:00;26.40;99.90
2024;DHT22;1016;48.770;9.154;2023-08-24T14:08:26;26.30;99.90
2024;DHT22;1016;48.770;9.154;2023-08-24T14:11:01;26.30;99.90
2024;DHT22;1016;48.770;9.154;2023-08-24T14:13:28;26.30;99.90
2024;DHT22;1016;48.770;9.154;2023-08-24T14:15:56;26.30;99.90
2024;DHT22;1016;48.770;9.154;2023-08-24T14:18:26;26.30;99.90
2024;DHT22;1016;48.770;9.154;2023-08-24T14:20:55;26.40;99.90
2024;DHT22;1016;48.770;9.154;2023-08-24T14:23:21;26.40;99.90
2024;DHT22;1016;48.770;9.154;2023-08-24T14:25:50;26.50;99.90
2024;DHT22;1016;48.770;9.154;2023-08-24T14:31:46;26.40;99.90
2024;DHT22;1016;48.770;9.154;2023-08-24T14:34:35;26.30;99.90
2024;DHT22;1016;48.770;9.154;2023-08-24T14:37:07;26.30;99.90
2024;DHT22;1016;48.770;9.154;2023-08-24T14:39:32;26.30;99.90
2024;DHT22;1016;48.770;9.154;2023-08-24T14:41:58;26.30;99.90
2024;DHT22;1016;48.770;9.154;2023-08-24T14:44:24;26.30;99.90
2024;DHT22;1016;48.770;9.154;2023-08-24T14:46:50;26.20;99.90
2024;DHT22;1016;48.770;9.154;2023-08-24T14:49:16;26.20;99.90
2024;DHT22;1016;48.770;9.154;2023-08-24T14:51:44;26.20;99.90
2024;DHT22;1016;48.770;9.154;2023-08-24T14:54:24;26.30;99.90
2024;DHT22;1016;48.770;9.154;2023-08-24T14:56:50;26.20;99.90
2024;DHT22;1016;48.770;9.154;2023-08-24T14:59:16;26.00;99.90
2024;DHT22;1016;48.770;9.154;2023-08-24T15:01:42;26.30;99.90
2024;DHT22;1016;48.770;9.154;2023-08-24T15:04:11;26.20;99.90
2024;DHT22;1016;48.770;9.154;2023-08-24T15:06:43;26.30;99.90
2024;DHT22;1016;48.770;9.154;2023-08-24T15:09:08;26.20;99.90
2024;DHT22;1016;48.770;9.154;2023-08-24T15:11:35;26.30;99.90
2024;DHT22;1016;48.770;9.154;2023-08-24T15:14:02;26.30;99.90
2024;DHT22;1016;48.770;9.154;2023-08-24T15:16:28;26.30;99.90
2024;DHT22;1016;48.770;9.154;2023-08-24T15:19:01;26.20;99.90
2024;DHT22;1016;48.770;9.154;2023-08-24T15:21:30;26.30;99.90
2024;DHT22;1016;48.770;9.154;2023-08-24T15:23:55;26.30;99.90
2024;DHT22;1016;48.770;9.154;2023-08-24T15:26:33;26.20;99.90
2024;DHT22;1016;48.770;9.154;2023-08-24T15:29:14;26.20;99.90
2024;DHT22;1016;48.770;9.154;2023-08-24T15:31:41;26.20;99.90
2024;DHT22;1016;48.770;9.154;2023-08-24T15:34:08;26.20;99.90
2024;DHT22;1016;48.770;9.154;2023-08-24T15:36:34;26.10;99.90
2024;DHT22;1016;48.770;9.154;2023-08-24T15:39:04;26.00;99.90
2024;DHT22;1016;48.770;9.154;2023-08-24T15:41:44;26.00;99.90
2024;DHT22;1016;48.770;9.154;2023-08-24T15:44:20;26.00;99.90
2024;DHT22;1016;48.770;9.154;2023-08-24T15:46:55;26.00;99.90
2024;DHT22;1016;48.770;9.154;2023-08-24T15:49:22;25.90;99.90
2024;DHT22;1016;48.770;9.154;2023-08-24T15:52:08;25.80;99.90
2024;DHT22;1016;48.770;9.154;2023-08-24T15:54:35;25.80;99.90
2024;DHT22;1016;48.770;9.154;2023-08-24T15:57:05;26.00;99.90
2024;DHT22;1016;48.770;9.154;2023-08-24T15:59:36;25.90;99.90
2024;DHT22;1016;48.770;9.154;2023-08-24T16:02:03;25.90;99.90
2024;DHT22;1016;48.770;9.154;2023-08-24T16:04:31;25.70;99.90
2024;DHT22;1016;48.770;9.154;2023-08-24T16:06:58;25.70;99.90
2024;DHT22;1016;48.770;9.154;2023-08-24T16:09:28;25.70;99.90
2024;DHT22;1016;48.770;9.154;2023-08-24T16:11:55;25.70;99.90
2024;DHT22;1016;48.770;9.154;2023-08-24T16:14:21;25.60;99.90
2024;DHT22;1016;48.770;9.154;2023-08-24T16:17:13;25.50;99.90
2024;DHT22;1016;48.770;9.154;2023-08-24T16:19:39;25.70;99.90
2024;DHT22;1016;48.770;9.154;2023-08-24T16:22:23;25.60;99.90
2024;DHT22;1016;48.770;9.154;2023-08-24T16:24:51;25.60;99.90
2024;DHT22;1016;48.770;9.154;2023-08-24T16:27:23;25.50;99.90
2024;DHT22;1016;48.770;9.154;2023-08-24T16:30:02;25.50;99.90
2024;DHT22;1016;48.770;9.154;2023-08-24T16:32:38;25.50;99.90
2024;DHT22;1016;48.770;9.154;2023-08-24T16:35:05;25.50;99.90
2024;DHT22;1016;48.770;9.154;2023-08-24T16:37:31;25.40;99.90
2024;DHT22;1016;48.770;9.154;2023-08-24T16:39:57;25.40;99.90
2024;DHT22;1016;48.770;9.154;2023-08-24T16:42:24;25.50;99.90
2024;DHT22;1016;48.770;9.154;2023-08-24T16:44:49;25.50;99.90
2024;DHT22;1016;48.770;9.154;2023-08-24T16:47:16;25.40;99.90
2024;DHT22;1016;48.770;9.154;2023-08-24T16:49:43;25.30;99.90
2024;DHT22;1016;48.770;9.154;2023-08-24T16:52:08;25.40;99.90
2024;DHT22;1016;48.770;9.154;2023-08-24T16:54:34;25.30;99.90
2024;DHT22;1016;48.770;9.154;2023-08-24T16:57:00;25.50;99.90